sensor_id;sensor_type;location;lat;lon;timestamp;temperature;humidity
21123;DHT22;10719;48.130;11.630;2023-06-22T00:01:52;20.10;99.90
21123;DHT22;10719;48.130;11.630;2023-06-22T00:04:18;20.10;99.90
21123;DHT22;10719;48.130;11.630;2023-06-22T00:06:43;20.10;99.90
21123;DHT22;10719;48.130;11.630;2023-06-22T00:09:09;20.10;99.90
21123;DHT22;10719;48.130;11.630;2023-06-22T00:11:36;20.10;99.90
21123;DHT22;10719;48.130;11.630;2023-06-22T00:14:02;20.10;99.90
21123;DHT22;10719;48.130;11.630;2023-06-22T00:16:28;20.10;99.90
21123;DHT22;10719;48.130;11.630;2023-06-22T00:18:54;20.00;99.90
21123;DHT22;10719;48.130;11.630;2023-06-22T00:21:20;20.10;99.90
21123;DHT22;10719;48.130;11.630;2023-06-22T00:23:46;20.10;99.90
21123;DHT22;10719;48.130;11.630;2023-06-22T00:26:13;20.00;99.90
21123;DHT22;10719;48.130;11.630;2023-06-22T00:28:39;20.00;99.90
21123;DHT22;10719;48.130;11.630;2023-06-22T00:31:04;20.00;99.90
21123;DHT22;10719;48.130;11.630;2023-06-22T00:33:30;20.00;99.90
21123;DHT22;10719;48.130;11.630;2023-06-22T00:35:57;19.90;99.90
21123;DHT22;10719;48.130;11.630;2023-06-22T00:38:22;19.90;99.90
21123;DHT22;10719;48.130;11.630;2023-06-22T00:40:48;20.00;99.90
21123;DHT22;10719;48.130;11.630;2023-06-22T00:43:14;19.90;99.90
21123;DHT22;10719;48.130;11.630;2023-06-22T00:45:39;19.80;99.90
21123;DHT22;10719;48.130;11.630;2023-06-22T00:48:06;19.80;99.90
21123;DHT22;10719;48.130;11.630;2023-06-22T00:50:33;19.80;99.90
21123;DHT22;10719;48.130;11.630;2023-06-22T00:53:03;19.70;99.90
21123;DHT22;10719;48.130;11.630;2023-06-22T00:55:35;19.80;99.90
21123;DHT22;10719;48.130;11.630;2023-06-22T00:58:08;19.80;99.90
21123;DHT22;10719;48.130;11.630;2023-06-22T01:00:36;19.80;99.90
21123;DHT22;10719;48.130;11.630;2023-06-22T01:03:02;19.80;99.90
21123;DHT22;10719;48.130;11.630;2023-06-22T01:05:28;19.70;99.90
21123;DHT22;10719;48.130;11.630;2023-06-22T01:10:55;19.70;99.90
21123;DHT22;10719;48.130;11.630;2023-06-22T01:16:24;19.70;99.90
21123;DHT22;10719;48.130;11.630;2023-06-22T01:18:52;19.70;99.90
21123;DHT22;10719;48.130;11.630;2023-06-22T01:21:22;19.50;99.90
21123;DHT22;10719;48.130;11.630;2023-06-22T01:23:55;19.50;99.90
21123;DHT22;10719;48.130;11.630;2023-06-22T01:27:00;19.40;99.90
21123;DHT22;10719;48.130;11.630;2023-06-22T01:29:30;19.40;99.90
21123;DHT22;10719;48.130;11.630;2023-06-22T01:31:59;19.30;99.90
21123;DHT22;10719;48.130;11.630;2023-06-22T01:34:25;19.30;99.90
21123;DHT22;10719;48.130;11.630;2023-06-22T01:36:52;19.30;99.90
21123;DHT22;10719;48.130;11.630;2023-06-22T01:39:18;19.20;99.90
21123;DHT22;10719;48.130;11.630;2023-06-22T01:41:45;19.00;99.90
21123;DHT22;10719;48.130;11.630;2023-06-22T01:44:12;19.10;99.90
21123;DHT22;10719;48.130;11.630;2023-06-22T01:46:38;19.10;99.90
21123;DHT22;10719;48.130;11.630;2023-06-22T01:49:05;19.00;99.90
21123;DHT22;10719;48.130;11.630;2023-06-22T01:51:31;19.00;99.90
21123;DHT22;10719;48.130;11.630;2023-06-22T01:53:57;18.90;99.90
21123;DHT22;10719;48.130;11.630;2023-06-22T01:56:23;19.00;99.90
21123;DHT22;10719;48.130;11.630;2023-06-22T01:58:55;18.90;99.90
21123;DHT22;10719;48.130;11.630;2023-06-22T02:01:35;19.00;99.90
21123;DHT22;10719;48.130;11.630;2023-06-22T02:04:12;18.90;99.90
21123;DHT22;10719;48.130;11.630;2023-06-22T02:06:39;18.90;99.90
21123;DHT22;10719;48.130;11.630;2023-06-22T02:09:16;18.90;99.90
21123;DHT22;10719;48.130;11.630;2023-06-22T02:11:45;18.90;99.90
21123;DHT22;10719;48.130;11.630;2023-06-22T02:14:12;18.90;99.90
21123;DHT22;10719;48.130;11.630;2023-06-22T02:16:38;18.80;99.90
21123;DHT22;10719;48.130;11.630;2023-06-22T02:19:04;18.80;99.90
21123;DHT22;10719;48.130;11.630;2023-06-22T02:21:32;18.80;99.90
21123;DHT22;10719;48.130;11.630;2023-06-22T02:23:57;18.80;99.90
21123;DHT22;10719;48.130;11.630;2023-06-22T02:26:25;18.70;99.90
21123;DHT22;10719;48.130;11.630;2023-06-22T02:28:51;18.70;99.90
21123;DHT22;10719;48.130;11.630;2023-06-22T02:31:18;18.70;99.90
21123;DHT22;10719;48.130;11.630;2023-06-22T02:33:43;18.70;99.90
21123;DHT22;10719;48.130;11.630;2023-06-22T02:36:10;18.80;99.90
21123;DHT22;10719;48.130;11.630;2023-06-22T02:38:41;18.70;99.90
21123;DHT22;10719;48.130;11.630;2023-06-22T02:41:16;18.70;99.90
21123;DHT22;10719;48.130;11.630;2023-06-22T02:43:45;18.70;99.90
21123;DHT22;10719;48.130;11.630;2023-06-22T02:46:12;18.80;99.90
21123;DHT22;10719;48.130;11.630;2023-06-22T02:48:39;18.80;99.90
21123;DHT22;10719;48.130;11.630;2023-06-22T02:51:05;18.80;99.90
21123;DHT22;10719;48.130;11.630;2023-06-22T02:53:30;18.80;99.90
21123;DHT22;10719;48.130;11.630;2023-06-22T02:55:56;18.70;99.90
21123;DHT22;10719;48.130;11.630;2023-06-22T02:58:21;18.70;99.90
21123;DHT22;10719;48.130;11.630;2023-06-22T03:00:47;18.60;99.90
21123;DHT22;10719;48.130;11.630;2023-06-22T03:03:12;18.70;99.90
21123;DHT22;10719;48.130;11.630;2023-06-22T03:05:38;18.70;99.90
21123;DHT22;10719;48.130;11.630;2023-06-22T03:08:05;18.70;99.90
21123;DHT22;10719;48.130;11.630;2023-06-22T03:10:31;18.60;99.90
21123;DHT22;10719;48.130;11.630;2023-06-22T03:12:56;18.50;99.90
21123;DHT22;10719;48.130;11.630;2023-06-22T03:15:22;18.40;99.90
21123;DHT22;10719;48.130;11.630;2023-06-22T03:17:47;18.30;99.90
21123;DHT22;10719;48.130;11.630;2023-06-22T03:20:13;18.30;99.90
21123;DHT22;10719;48.130;11.630;2023-06-22T03:22:40;18.40;99.90
21123;DHT22;10719;48.130;11.630;2023-06-22T03:25:09;18.40;99.90
21123;DHT22;10719;48.130;11.630;2023-06-22T03:27:36;18.40;99.90
21123;DHT22;10719;48.130;11.630;2023-06-22T03:30:03;18.40;99.90
21123;DHT22;10719;48.130;11.630;2023-06-22T03:32:28;18.40;99.90
21123;DHT22;10719;48.130;11.630;2023-06-22T03:34:54;18.30;99.90
21123;DHT22;10719;48.130;11.630;2023-06-22T03:37:19;18.30;99.90
21123;DHT22;10719;48.130;11.630;2023-06-22T03:39:45;18.30;99.90
21123;DHT22;10719;48.130;11.630;2023-06-22T03:42:10;18.30;99.90
21123;DHT22;10719;48.130;11.630;2023-06-22T03:44:36;18.30;99.90
21123;DHT22;10719;48.130;11.630;2023-06-22T03:47:05;18.30;99.90
21123;DHT22;10719;48.130;11.630;2023-06-22T03:49:32;18.40;99.90
21123;DHT22;10719;48.130;11.630;2023-06-22T03:51:59;18.40;99.90
21123;DHT22;10719;48.130;11.630;2023-06-22T03:54:25;18.40;99.90
21123;DHT22;10719;48.130;11.630;2023-06-22T03:56:50;18.40;99.90
21123;DHT22;10719;48.130;11.630;2023-06-22T03:59:16;18.30;99.90
21123;DHT22;10719;48.130;11.630;2023-06-22T04:01:41;18.40;99.90
21123;DHT22;10719;48.130;11.630;2023-06-22T04:04:07;18.40;99.90
21123;DHT22;10719;48.130;11.630;2023-06-22T04:06:33;18.50;99.90
21123;DHT22;10719;48.130;11.630;2023-06-22T04:08:59;18.50;99.90
21123;DHT22;10719;48.130;11.630;2023-06-22T04:11:26;18.70;99.90
21123;DHT22;10719;48.130;11.630;2023-06-22T04:13:51;18.80;99.90
21123;DHT22;10719;48.130;11.630;2023-06-22T04:16:17;18.80;99.90
21123;DHT22;10719;48.130;11.630;2023-06-22T04:18:43;18.90;99.90
21123;DHT22;10719;48.130;11.630;2023-06-22T04:21:09;18.90;99.90
21123;DHT22;10719;48.130;11.630;2023-06-22T04:23:35;18.80;99.90
21123;DHT22;10719;48.130;11.630;2023-06-22T04:26:00;18.90;99.90
21123;DHT22;10719;48.130;11.630;2023-06-22T04:28:26;19.00;99.90
21123;DHT22;10719;48.130;11.630;2023-06-22T04:30:51;19.00;99.90
21123;DHT22;10719;48.130;11.630;2023-06-22T04:33:17;19.00;99.90
21123;DHT22;10719;48.130;11.630;2023-06-22T04:35:45;19.00;99.90
21123;DHT22;10719;48.130;11.630;2023-06-22T04:38:12;19.10;99.90
21123;DHT22;10719;48.130;11.630;2023-06-22T04:40:41;19.20;99.90
21123;DHT22;10719;48.130;11.630;2023-06-22T04:43:06;19.30;99.90
21123;DHT22;10719;48.130;11.630;2023-06-22T04:45:33;19.30;99.90
21123;DHT22;10719;48.130;11.630;2023-06-22T04:47:58;19.30;99.90
21123;DHT22;10719;48.130;11.630;2023-06-22T04:50:24;19.50;99.90
21123;DHT22;10719;48.130;11.630;2023-06-22T04:52:50;19.50;99.90
21123;DHT22;10719;48.130;11.630;2023-06-22T04:55:17;19.50;99.90
21123;DHT22;10719;48.130;11.630;2023-06-22T04:57:45;19.30;99.90
21123;DHT22;10719;48.130;11.630;2023-06-22T05:00:15;19.30;99.90
21123;DHT22;10719;48.130;11.630;2023-06-22T05:02:43;19.40;99.90
21123;DHT22;10719;48.130;11.630;2023-06-22T05:05:10;19.40;99.90
21123;DHT22;10719;48.130;11.630;2023-06-22T05:07:39;19.60;99.90
21123;DHT22;10719;48.130;11.630;2023-06-22T05:10:08;19.60;99.90
21123;DHT22;10719;48.130;11.630;2023-06-22T05:12:34;19.80;99.90
21123;DHT22;10719;48.130;11.630;2023-06-22T05:15:00;19.80;99.90
21123;DHT22;10719;48.130;11.630;2023-06-22T05:17:26;19.90;99.90
21123;DHT22;10719;48.130;11.630;2023-06-22T05:19:52;19.90;99.90
21123;DHT22;10719;48.130;11.630;2023-06-22T05:22:18;20.00;99.90
21123;DHT22;10719;48.130;11.630;2023-06-22T05:24:44;19.90;99.90
21123;DHT22;10719;48.130;11.630;2023-06-22T05:27:10;20.00;99.90
21123;DHT22;10719;48.130;11.630;2023-06-22T05:29:36;20.10;99.90
21123;DHT22;10719;48.130;11.630;2023-06-22T05:32:03;20.20;99.90
21123;DHT22;10719;48.130;11.630;2023-06-22T05:34:28;20.20;99.90
21123;DHT22;10719;48.130;11.630;2023-06-22T05:36:54;20.40;99.90
21123;DHT22;10719;48.130;11.630;2023-06-22T05:39:19;20.50;99.90
21123;DHT22;10719;48.130;11.630;2023-06-22T05:41:46;20.50;99.90
21123;DHT22;10719;48.130;11.630;2023-06-22T05:44:11;20.50;99.90
21123;DHT22;10719;48.130;11.630;2023-06-22T05:46:40;20.50;99.90
21123;DHT22;10719;48.130;11.630;2023-06-22T05:49:09;20.60;99.90
21123;DHT22;10719;48.130;11.630;2023-06-22T05:51:35;20.70;99.90
21123;DHT22;10719;48.130;11.630;2023-06-22T05:54:01;20.80;99.90
21123;DHT22;10719;48.130;11.630;2023-06-22T05:56:26;20.90;99.90
21123;DHT22;10719;48.130;11.630;2023-06-22T05:58:52;20.90;99.90
21123;DHT22;10719;48.130;11.630;2023-06-22T06:01:17;21.00;99.90
21123;DHT22;10719;48.130;11.630;2023-06-22T06:03:43;21.00;99.90
21123;DHT22;10719;48.130;11.630;2023-06-22T06:06:09;21.10;99.90
21123;DHT22;10719;48.130;11.630;2023-06-22T06:08:37;21.10;99.90
21123;DHT22;10719;48.130;11.630;2023-06-22T06:11:02;21.20;99.90
21123;DHT22;10719;48.130;11.630;2023-06-22T06:13:28;21.30;99.90
21123;DHT22;10719;48.130;11.630;2023-06-22T06:15:53;21.30;99.90
21123;DHT22;10719;48.130;11.630;2023-06-22T06:18:21;21.30;99.90
21123;DHT22;10719;48.130;11.630;2023-06-22T06:20:47;21.40;99.90
21123;DHT22;10719;48.130;11.630;2023-06-22T06:23:12;21.50;99.90
21123;DHT22;10719;48.130;11.630;2023-06-22T06:25:38;21.60;99.90
21123;DHT22;10719;48.130;11.630;2023-06-22T06:28:04;21.70;99.90
21123;DHT22;10719;48.130;11.630;2023-06-22T06:30:30;21.80;99.90
21123;DHT22;10719;48.130;11.630;2023-06-22T06:32:55;22.00;99.90
21123;DHT22;10719;48.130;11.630;2023-06-22T06:35:21;22.00;99.90
21123;DHT22;10719;48.130;11.630;2023-06-22T06:37:48;22.10;99.90
21123;DHT22;10719;48.130;11.630;2023-06-22T06:40:15;22.20;99.90
21123;DHT22;10719;48.130;11.630;2023-06-22T06:42:43;22.30;99.90
21123;DHT22;10719;48.130;11.630;2023-06-22T06:45:16;22.40;99.90
21123;DHT22;10719;48.130;11.630;2023-06-22T06:47:42;22.50;99.90
21123;DHT22;10719;48.130;11.630;2023-06-22T06:50:08;22.60;99.90
21123;DHT22;10719;48.130;11.630;2023-06-22T06:52:35;22.70;99.90
21123;DHT22;10719;48.130;11.630;2023-06-22T06:55:01;22.70;99.90
21123;DHT22;10719;48.130;11.630;2023-06-22T06:57:26;22.80;99.90
21123;DHT22;10719;48.130;11.630;2023-06-22T06:59:54;22.80;99.90
21123;DHT22;10719;48.130;11.630;2023-06-22T07:02:21;22.90;99.90
21123;DHT22;10719;48.130;11.630;2023-06-22T07:04:47;23.00;99.90
21123;DHT22;10719;48.130;11.630;2023-06-22T07:07:12;23.10;99.90
21123;DHT22;10719;48.130;11.630;2023-06-22T07:09:38;23.20;99.90
21123;DHT22;10719;48.130;11.630;2023-06-22T07:12:04;23.40;99.90
21123;DHT22;10719;48.130;11.630;2023-06-22T07:14:30;23.40;99.90
21123;DHT22;10719;48.130;11.630;2023-06-22T07:16:57;23.40;99.90
21123;DHT22;10719;48.130;11.630;2023-06-22T07:19:27;23.50;99.90
21123;DHT22;10719;48.130;11.630;2023-06-22T07:21:55;23.60;99.90
21123;DHT22;10719;48.130;11.630;2023-06-22T07:24:21;23.80;99.90
21123;DHT22;10719;48.130;11.630;2023-06-22T07:26:48;23.80;99.90
21123;DHT22;10719;48.130;11.630;2023-06-22T07:29:16;23.90;99.90
21123;DHT22;10719;48.130;11.630;2023-06-22T07:31:42;24.00;99.90
21123;DHT22;10719;48.130;11.630;2023-06-22T07:34:07;24.10;99.90
21123;DHT22;10719;48.130;11.630;2023-06-22T07:36:33;24.10;99.90
21123;DHT22;10719;48.130;11.630;2023-06-22T07:39:01;24.30;99.90
21123;DHT22;10719;48.130;11.630;2023-06-22T07:41:28;24.30;99.90
21123;DHT22;10719;48.130;11.630;2023-06-22T07:43:53;24.50;99.90
21123;DHT22;10719;48.130;11.630;2023-06-22T07:46:19;24.70;99.90
21123;DHT22;10719;48.130;11.630;2023-06-22T07:48:44;24.80;99.90
21123;DHT22;10719;48.130;11.630;2023-06-22T07:51:10;24.90;99.90
21123;DHT22;10719;48.130;11.630;2023-06-22T07:53:42;25.00;99.90
21123;DHT22;10719;48.130;11.630;2023-06-22T07:56:10;25.10;99.90
21123;DHT22;10719;48.130;11.630;2023-06-22T07:58:36;25.10;99.90
21123;DHT22;10719;48.130;11.630;2023-06-22T08:01:02;25.20;99.90
21123;DHT22;10719;48.130;11.630;2023-06-22T08:03:28;25.50;99.90
21123;DHT22;10719;48.130;11.630;2023-06-22T08:05:54;25.50;99.90
21123;DHT22;10719;48.130;11.630;2023-06-22T08:08:20;25.80;99.90
21123;DHT22;10719;48.130;11.630;2023-06-22T08:10:45;25.90;99.90
21123;DHT22;10719;48.130;11.630;2023-06-22T08:13:11;26.10;99.90
21123;DHT22;10719;48.130;11.630;2023-06-22T08:15:36;26.30;99.90
21123;DHT22;10719;48.130;11.630;2023-06-22T08:18:02;26.50;99.90
21123;DHT22;10719;48.130;11.630;2023-06-22T08:20:28;26.70;99.90
21123;DHT22;10719;48.130;11.630;2023-06-22T08:22:55;27.00;99.90
21123;DHT22;10719;48.130;11.630;2023-06-22T08:25:21;27.10;99.90
21123;DHT22;10719;48.130;11.630;2023-06-22T08:27:47;27.30;99.90
21123;DHT22;10719;48.130;11.630;2023-06-22T08:30:14;27.60;99.90
21123;DHT22;10719;48.130;11.630;2023-06-22T08:32:40;27.90;99.90
21123;DHT22;10719;48.130;11.630;2023-06-22T08:35:06;28.20;99.90
21123;DHT22;10719;48.130;11.630;2023-06-22T08:37:35;28.30;99.90
21123;DHT22;10719;48.130;11.630;2023-06-22T08:40:03;28.40;99.90
21123;DHT22;10719;48.130;11.630;2023-06-22T08:42:33;28.60;99.90
21123;DHT22;10719;48.130;11.630;2023-06-22T08:44:59;28.30;99.90
21123;DHT22;10719;48.130;11.630;2023-06-22T08:47:24;28.00;99.90
21123;DHT22;10719;48.130;11.630;2023-06-22T08:49:50;27.80;99.90
21123;DHT22;10719;48.130;11.630;2023-06-22T08:52:17;27.90;99.90
21123;DHT22;10719;48.130;11.630;2023-06-22T08:54:44;27.90;99.90
21123;DHT22;10719;48.130;11.630;2023-06-22T08:57:09;28.10;99.90
21123;DHT22;10719;48.130;11.630;2023-06-22T08:59:35;28.30;99.90
21123;DHT22;10719;48.130;11.630;2023-06-22T09:02:01;28.40;99.90
21123;DHT22;10719;48.130;11.630;2023-06-22T09:04:26;28.40;99.90
21123;DHT22;10719;48.130;11.630;2023-06-22T09:06:52;28.30;99.90
21123;DHT22;10719;48.130;11.630;2023-06-22T09:09:17;28.60;99.90
21123;DHT22;10719;48.130;11.630;2023-06-22T09:11:44;28.90;99.90
21123;DHT22;10719;48.130;11.630;2023-06-22T09:14:10;29.10;99.90
21123;DHT22;10719;48.130;11.630;2023-06-22T09:16:35;29.20;99.90
21123;DHT22;10719;48.130;11.630;2023-06-22T09:19:01;29.30;99.90
21123;DHT22;10719;48.130;11.630;2023-06-22T09:21:27;29.40;99.90
21123;DHT22;10719;48.130;11.630;2023-06-22T09:23:53;29.50;99.90
21123;DHT22;10719;48.130;11.630;2023-06-22T09:26:19;29.50;99.90
21123;DHT22;10719;48.130;11.630;2023-06-22T09:28:44;29.20;99.90
21123;DHT22;10719;48.130;11.630;2023-06-22T09:31:10;29.30;99.90
21123;DHT22;10719;48.130;11.630;2023-06-22T09:33:36;29.60;99.90
21123;DHT22;10719;48.130;11.630;2023-06-22T09:36:04;29.80;99.90
21123;DHT22;10719;48.130;11.630;2023-06-22T09:38:34;30.10;99.90
21123;DHT22;10719;48.130;11.630;2023-06-22T09:41:00;30.30;99.90
21123;DHT22;10719;48.130;11.630;2023-06-22T09:43:26;30.30;99.90
21123;DHT22;10719;48.130;11.630;2023-06-22T09:45:52;30.20;99.90
21123;DHT22;10719;48.130;11.630;2023-06-22T09:48:17;30.50;99.90
21123;DHT22;10719;48.130;11.630;2023-06-22T09:50:43;30.60;99.90
21123;DHT22;10719;48.130;11.630;2023-06-22T09:53:09;30.80;99.90
21123;DHT22;10719;48.130;11.630;2023-06-22T09:55:34;31.10;99.90
21123;DHT22;10719;48.130;11.630;2023-06-22T09:58:00;31.40;99.90
21123;DHT22;10719;48.130;11.630;2023-06-22T10:00:26;31.30;99.90
21123;DHT22;10719;48.130;11.630;2023-06-22T10:02:54;31.00;99.90
21123;DHT22;10719;48.130;11.630;2023-06-22T10:05:21;31.10;99.90
21123;DHT22;10719;48.130;11.630;2023-06-22T10:07:47;31.10;99.90
21123;DHT22;10719;48.130;11.630;2023-06-22T10:10:13;31.10;99.90
21123;DHT22;10719;48.130;11.630;2023-06-22T10:12:45;31.30;99.90
21123;DHT22;10719;48.130;11.630;2023-06-22T10:15:11;31.50;99.90
21123;DHT22;10719;48.130;11.630;2023-06-22T10:17:37;31.80;99.90
21123;DHT22;10719;48.130;11.630;2023-06-22T10:20:03;32.10;99.90
21123;DHT22;10719;48.130;11.630;2023-06-22T10:22:36;32.50;99.90
21123;DHT22;10719;48.130;11.630;2023-06-22T10:25:01;32.50;99.90
21123;DHT22;10719;48.130;11.630;2023-06-22T10:27:27;32.30;99.90
21123;DHT22;10719;48.130;11.630;2023-06-22T10:29:52;32.50;99.90
21123;DHT22;10719;48.130;11.630;2023-06-22T10:32:19;32.70;99.90
21123;DHT22;10719;48.130;11.630;2023-06-22T10:34:44;32.80;99.90
21123;DHT22;10719;48.130;11.630;2023-06-22T10:37:10;32.90;99.90
21123;DHT22;10719;48.130;11.630;2023-06-22T10:39:36;33.30;99.90
21123;DHT22;10719;48.130;11.630;2023-06-22T10:42:01;33.40;99.90
21123;DHT22;10719;48.130;11.630;2023-06-22T10:44:27;33.30;99.90
21123;DHT22;10719;48.130;11.630;2023-06-22T10:46:53;33.60;99.90
21123;DHT22;10719;48.130;11.630;2023-06-22T10:49:18;33.60;99.90
21123;DHT22;10719;48.130;11.630;2023-06-22T10:51:44;33.80;99.90
21123;DHT22;10719;48.130;11.630;2023-06-22T10:54:09;34.20;99.90
21123;DHT22;10719;48.130;11.630;2023-06-22T10:56:36;34.20;99.90
21123;DHT22;10719;48.130;11.630;2023-06-22T10:59:02;34.10;99.90
21123;DHT22;10719;48.130;11.630;2023-06-22T11:01:27;34.00;99.90
21123;DHT22;10719;48.130;11.630;2023-06-22T11:03:53;34.40;99.90
21123;DHT22;10719;48.130;11.630;2023-06-22T11:06:19;34.90;99.90
21123;DHT22;10719;48.130;11.630;2023-06-22T11:08:45;35.30;99.90
21123;DHT22;10719;48.130;11.630;2023-06-22T11:11:11;35.80;99.90
21123;DHT22;10719;48.130;11.630;2023-06-22T11:13:36;35.80;99.90
21123;DHT22;10719;48.130;11.630;2023-06-22T11:16:02;35.20;99.90
21123;DHT22;10719;48.130;11.630;2023-06-22T11:18:27;35.20;99.90
21123;DHT22;10719;48.130;11.630;2023-06-22T11:20:53;34.90;99.90
21123;DHT22;10719;48.130;11.630;2023-06-22T11:23:19;34.40;99.90
21123;DHT22;10719;48.130;11.630;2023-06-22T11:25:44;34.60;99.90
21123;DHT22;10719;48.130;11.630;2023-06-22T11:28:11;34.60;99.90
21123;DHT22;10719;48.130;11.630;2023-06-22T11:30:37;34.40;99.90
21123;DHT22;10719;48.130;11.630;2023-06-22T11:33:02;34.50;99.90
21123;DHT22;10719;48.130;11.630;2023-06-22T11:35:28;34.30;99.90
21123;DHT22;10719;48.130;11.630;2023-06-22T11:37:54;34.90;99.90
21123;DHT22;10719;48.130;11.630;2023-06-22T11:40:21;35.00;99.90
21123;DHT22;10719;48.130;11.630;2023-06-22T11:42:48;35.20;99.90
21123;DHT22;10719;48.130;11.630;2023-06-22T11:45:13;35.40;99.90
21123;DHT22;10719;48.130;11.630;2023-06-22T11:47:39;35.50;99.90
21123;DHT22;10719;48.130;11.630;2023-06-22T11:50:05;35.80;99.90
21123;DHT22;10719;48.130;11.630;2023-06-22T11:52:32;36.00;99.90
21123;DHT22;10719;48.130;11.630;2023-06-22T11:54:58;35.40;99.90
21123;DHT22;10719;48.130;11.630;2023-06-22T11:57:25;35.60;99.90
21123;DHT22;10719;48.130;11.630;2023-06-22T11:59:50;35.90;99.90
21123;DHT22;10719;48.130;11.630;2023-06-22T12:02:16;36.50;99.90
21123;DHT22;10719;48.130;11.630;2023-06-22T12:04:41;37.40;99.90
21123;DHT22;10719;48.130;11.630;2023-06-22T12:07:07;38.10;99.90
21123;DHT22;10719;48.130;11.630;2023-06-22T12:09:32;38.60;99.90
21123;DHT22;10719;48.130;11.630;2023-06-22T12:11:58;38.80;99.90
21123;DHT22;10719;48.130;11.630;2023-06-22T12:14:23;38.50;99.90
21123;DHT22;10719;48.130;11.630;2023-06-22T12:16:49;38.50;99.90
21123;DHT22;10719;48.130;11.630;2023-06-22T12:19:15;38.10;99.90
21123;DHT22;10719;48.130;11.630;2023-06-22T12:21:40;37.80;99.90
21123;DHT22;10719;48.130;11.630;2023-06-22T12:24:06;37.30;99.90
21123;DHT22;10719;48.130;11.630;2023-06-22T12:26:32;37.60;99.90
21123;DHT22;10719;48.130;11.630;2023-06-22T12:28:57;38.40;99.90
21123;DHT22;10719;48.130;11.630;2023-06-22T12:31:23;39.20;99.90
21123;DHT22;10719;48.130;11.630;2023-06-22T12:33:48;39.90;99.90
21123;DHT22;10719;48.130;11.630;2023-06-22T12:36:14;40.30;99.90
21123;DHT22;10719;48.130;11.630;2023-06-22T12:38:41;40.10;99.90
21123;DHT22;10719;48.130;11.630;2023-06-22T12:41:07;40.30;99.90
21123;DHT22;10719;48.130;11.630;2023-06-22T12:43:32;40.30;99.90
21123;DHT22;10719;48.130;11.630;2023-06-22T12:45:58;40.10;99.90
21123;DHT22;10719;48.130;11.630;2023-06-22T12:48:26;40.00;99.90
21123;DHT22;10719;48.130;11.630;2023-06-22T12:50:52;39.40;99.90
21123;DHT22;10719;48.130;11.630;2023-06-22T12:53:17;38.70;99.90
21123;DHT22;10719;48.130;11.630;2023-06-22T12:55:43;37.80;99.90
21123;DHT22;10719;48.130;11.630;2023-06-22T12:58:08;37.30;99.90
21123;DHT22;10719;48.130;11.630;2023-06-22T13:00:34;37.30;99.90
21123;DHT22;10719;48.130;11.630;2023-06-22T13:03:00;36.90;99.90
21123;DHT22;10719;48.130;11.630;2023-06-22T13:05:25;36.80;99.90
21123;DHT22;10719;48.130;11.630;2023-06-22T13:07:51;37.40;99.90
21123;DHT22;10719;48.130;11.630;2023-06-22T13:10:17;38.10;99.90
21123;DHT22;10719;48.130;11.630;2023-06-22T13:12:42;38.60;99.90
21123;DHT22;10719;48.130;11.630;2023-06-22T13:15:08;38.90;99.90
21123;DHT22;10719;48.130;11.630;2023-06-22T13:17:34;39.00;99.90
21123;DHT22;10719;48.130;11.630;2023-06-22T13:19:59;38.90;99.90
21123;DHT22;10719;48.130;11.630;2023-06-22T13:22:31;39.30;99.90
21123;DHT22;10719;48.130;11.630;2023-06-22T13:24:58;39.40;99.90
21123;DHT22;10719;48.130;11.630;2023-06-22T13:27:24;39.50;99.90
21123;DHT22;10719;48.130;11.630;2023-06-22T13:29:50;38.90;99.90
21123;DHT22;10719;48.130;11.630;2023-06-22T13:32:15;39.10;99.90
21123;DHT22;10719;48.130;11.630;2023-06-22T13:34:42;39.80;99.90
21123;DHT22;10719;48.130;11.630;2023-06-22T13:37:08;40.50;99.90
21123;DHT22;10719;48.130;11.630;2023-06-22T13:39:33;39.70;99.90
21123;DHT22;10719;48.130;11.630;2023-06-22T13:41:59;40.30;99.90
21123;DHT22;10719;48.130;11.630;2023-06-22T13:44:24;40.30;99.90
21123;DHT22;10719;48.130;11.630;2023-06-22T13:46:54;39.70;99.90
21123;DHT22;10719;48.130;11.630;2023-06-22T13:49:20;39.80;99.90
21123;DHT22;10719;48.130;11.630;2023-06-22T13:51:47;40.10;99.90
21123;DHT22;10719;48.130;11.630;2023-06-22T13:54:13;39.50;99.90
21123;DHT22;10719;48.130;11.630;2023-06-22T13:56:39;40.40;99.90
21123;DHT22;10719;48.130;11.630;2023-06-22T13:59:05;40.80;99.90
21123;DHT22;10719;48.130;11.630;2023-06-22T14:01:32;40.80;99.90
21123;DHT22;10719;48.130;11.630;2023-06-22T14:03:57;40.80;99.90
21123;DHT22;10719;48.130;11.630;2023-06-22T14:06:23;41.70;99.90
21123;DHT22;10719;48.130;11.630;2023-06-22T14:08:48;41.80;99.90
21123;DHT22;10719;48.130;11.630;2023-06-22T14:11:16;41.40;99.90
21123;DHT22;10719;48.130;11.630;2023-06-22T14:13:41;41.70;99.90
21123;DHT22;10719;48.130;11.630;2023-06-22T14:16:08;41.10;99.90
21123;DHT22;10719;48.130;11.630;2023-06-22T14:18:33;41.50;99.90
21123;DHT22;10719;48.130;11.630;2023-06-22T14:20:59;40.90;99.90
21123;DHT22;10719;48.130;11.630;2023-06-22T14:23:25;40.60;99.90
21123;DHT22;10719;48.130;11.630;2023-06-22T14:25:50;40.60;99.90
21123;DHT22;10719;48.130;11.630;2023-06-22T14:28:16;41.10;99.90
21123;DHT22;10719;48.130;11.630;2023-06-22T14:30:42;41.00;99.90
21123;DHT22;10719;48.130;11.630;2023-06-22T14:33:07;41.80;99.90
21123;DHT22;10719;48.130;11.630;2023-06-22T14:35:33;42.10;99.90
21123;DHT22;10719;48.130;11.630;2023-06-22T14:37:58;41.50;99.90
21123;DHT22;10719;48.130;11.630;2023-06-22T14:40:24;40.70;99.90
21123;DHT22;10719;48.130;11.630;2023-06-22T14:42:49;41.20;99.90
21123;DHT22;10719;48.130;11.630;2023-06-22T14:45:15;41.10;99.90
21123;DHT22;10719;48.130;11.630;2023-06-22T14:47:40;41.20;99.90
21123;DHT22;10719;48.130;11.630;2023-06-22T14:50:06;41.30;99.90
21123;DHT22;10719;48.130;11.630;2023-06-22T14:52:32;41.40;99.90
21123;DHT22;10719;48.130;11.630;2023-06-22T14:54:57;40.50;99.90
21123;DHT22;10719;48.130;11.630;2023-06-22T14:57:23;40.00;99.90
21123;DHT22;10719;48.130;11.630;2023-06-22T14:59:49;39.70;99.90
21123;DHT22;10719;48.130;11.630;2023-06-22T15:02:15;38.70;99.90
21123;DHT22;10719;48.130;11.630;2023-06-22T15:04:41;39.00;99.90
21123;DHT22;10719;48.130;11.630;2023-06-22T15:07:06;39.30;99.90
21123;DHT22;10719;48.130;11.630;2023-06-22T15:09:32;38.90;99.90
21123;DHT22;10719;48.130;11.630;2023-06-22T15:11:58;39.70;99.90
21123;DHT22;10719;48.130;11.630;2023-06-22T15:14:27;39.20;99.90
21123;DHT22;10719;48.130;11.630;2023-06-22T15:16:52;39.70;99.90